Time;durP1;ratioP1;P1;durP2;ratioP2;P2;SDS_P1;SDS_P2;PMS_P1;PMS_P2;Temp;Humidity;BMP_temperature;BMP_pressure;BME280_temperature;BME280_humidity;BME280_pressure;Samples;Min_cycle;Max_cycle;Signal;HPM_P1;HPM_P2
2023/04/20 00:01:52;;;;;;;6.70;4.03;;;;;;;7.22;40.00;102129.69;5048938;28;20064;-63
2023/04/20 00:04:17;;;;;;;7.07;4.25;;;;;;;7.23;40.24;102131.38;5049605;28;20409;-62
2023/04/20 00:06:44;;;;;;;9.40;4.10;;;;;;;7.23;40.32;102129.59;5048165;28;20033;-63
2023/04/20 00:09:11;;;;;;;8.85;4.13;;;;;;;7.13;40.18;102121.47;5048704;28;20025;-63
2023/04/20 00:11:37;;;;;;;9.82;4.28;;;;;;;7.13;40.92;102121.47;5046915;28;20041;-62
2023/04/20 00:14:02;;;;;;;8.25;4.20;;;;;;;7.19;39.79;102121.97;5045634;28;21003;-62
2023/04/20 00:16:28;;;;;;;6.72;4.10;;;;;;;7.08;41.52;102123.59;5049363;28;20098;-62
2023/04/20 00:18:53;;;;;;;7.35;4.30;;;;;;;7.13;40.93;102124.09;5048999;28;20086;-62
2023/04/20 00:21:22;;;;;;;7.97;4.28;;;;;;;7.04;41.50;102108.91;5049918;28;20100;-63
2023/04/20 00:23:48;;;;;;;9.57;4.22;;;;;;;7.06;40.65;102106.19;5049178;28;20025;-63
2023/04/20 00:26:13;;;;;;;9.68;4.20;;;;;;;6.99;41.39;102101.31;5050579;28;20039;-62
2023/04/20 00:28:38;;;;;;;11.52;4.30;;;;;;;6.89;42.23;102094.13;5043469;28;20372;-62
2023/04/20 00:31:04;;;;;;;9.80;4.10;;;;;;;6.91;41.29;102100.16;5053128;28;20028;-62
2023/04/20 00:33:30;;;;;;;9.05;4.10;;;;;;;6.86;42.84;102095.22;5048077;28;20041;-63
2023/04/20 00:35:55;;;;;;;7.32;4.40;;;;;;;6.87;41.07;102086.34;5043325;28;20021;-63
2023/04/20 00:38:20;;;;;;;8.35;4.20;;;;;;;6.83;42.03;102080.44;5044062;28;20029;-62
2023/04/20 00:40:51;;;;;;;7.90;4.18;;;;;;;6.81;42.97;102078.88;5046437;28;20025;-62
2023/04/20 00:43:17;;;;;;;5.88;3.95;;;;;;;6.72;43.20;102069.81;5046038;28;20056;-63
2023/04/20 00:45:42;;;;;;;7.30;4.13;;;;;;;6.77;43.84;102072.97;5047867;28;20067;-63
2023/04/20 00:48:07;;;;;;;8.15;4.03;;;;;;;6.73;42.17;102071.47;5053425;28;20051;-63
2023/04/20 00:50:33;;;;;;;9.05;4.03;;;;;;;6.70;42.35;102062.00;5053828;28;20037;-62
2023/04/20 00:53:00;;;;;;;7.97;4.03;;;;;;;6.70;41.95;102055.84;5050758;28;20056;-62
2023/04/20 00:55:26;;;;;;;5.75;4.30;;;;;;;6.68;42.25;102052.50;5050017;28;20102;-63
2023/04/20 00:57:51;;;;;;;6.90;4.00;;;;;;;6.64;41.96;102051.00;5051219;28;20480;-63
2023/04/20 01:00:17;;;;;;;7.97;3.85;;;;;;;6.64;43.12;102051.00;5049495;28;20025;-63
2023/04/20 01:02:42;;;;;;;7.90;3.92;;;;;;;6.62;42.75;102040.59;5051183;28;20025;-62
2023/04/20 01:05:08;;;;;;;6.88;3.85;;;;;;;6.63;43.59;102033.50;5046745;28;20032;-63
2023/04/20 01:07:33;;;;;;;8.23;3.90;;;;;;;6.59;42.74;102033.75;5053472;28;20075;-63
2023/04/20 01:09:58;;;;;;;7.47;3.83;;;;;;;6.54;42.80;102030.56;5045557;28;20064;-63
2023/04/20 01:12:24;;;;;;;5.88;3.85;;;;;;;6.56;42.75;102033.94;5045119;28;20113;-63
2023/04/20 01:14:49;;;;;;;7.07;3.80;;;;;;;6.52;43.13;102026.34;5051329;28;20056;-62
2023/04/20 01:17:16;;;;;;;8.82;3.60;;;;;;;6.54;42.74;102020.03;5053611;28;20025;-62
2023/04/20 01:19:43;;;;;;;10.85;4.00;;;;;;;6.53;44.06;102012.22;5049353;28;20073;-62
2023/04/20 01:22:15;;;;;;;6.72;3.75;;;;;;;6.40;44.04;102006.94;5053317;28;20524;-63
2023/04/20 01:24:40;;;;;;;15.27;3.97;;;;;;;6.41;44.84;102003.38;5049736;28;20033;-62
2023/04/20 01:27:06;;;;;;;4.88;3.58;;;;;;;6.44;43.77;102009.28;5052010;28;20027;-64
2023/04/20 01:29:32;;;;;;;10.13;4.25;;;;;;;6.40;44.76;101999.91;5053187;28;20029;-62
2023/04/20 01:31:58;;;;;;;8.27;3.70;;;;;;;6.25;43.76;101999.16;5052260;28;20241;-62
2023/04/20 01:34:23;;;;;;;7.15;3.70;;;;;;;6.24;45.28;101992.19;5052023;28;20435;-62
2023/04/20 01:36:48;;;;;;;6.32;3.92;;;;;;;6.21;44.42;101989.75;5049807;28;20025;-62
2023/04/20 01:39:13;;;;;;;10.20;4.00;;;;;;;6.24;45.49;101983.44;5051994;28;20033;-62
2023/04/20 01:41:39;;;;;;;8.10;3.83;;;;;;;6.20;44.60;101985.44;5050289;28;20033;-62
2023/04/20 01:44:04;;;;;;;6.82;3.85;;;;;;;6.17;45.14;101980.41;5053864;28;20033;-62
2023/04/20 01:46:30;;;;;;;9.43;3.80;;;;;;;6.20;45.14;101977.53;5047887;28;20062;-62
2023/04/20 01:48:55;;;;;;;7.40;3.88;;;;;;;6.14;44.93;101977.97;5051436;28;20049;-63
2023/04/20 01:51:21;;;;;;;8.75;4.07;;;;;;;6.18;45.79;101977.63;5042792;28;20040;-62
2023/04/20 01:53:46;;;;;;;10.23;3.80;;;;;;;6.13;45.29;101968.38;5052095;28;20418;-62
2023/04/20 01:56:11;;;;;;;7.35;3.90;;;;;;;5.97;45.15;101969.38;5051391;28;20037;-63
2023/04/20 01:58:37;;;;;;;7.30;3.88;;;;;;;6.00;46.37;101963.91;5052400;28;20112;-63
2023/04/20 02:01:02;;;;;;;11.40;3.88;;;;;;;5.88;46.49;101959.47;5047312;28;20026;-63
2023/04/20 02:03:28;;;;;;;6.95;3.90;;;;;;;5.74;47.42;101957.75;5050255;28;20040;-62
2023/04/20 02:05:53;;;;;;;8.55;3.90;;;;;;;5.73;46.91;101950.81;5047519;28;20059;-62
2023/04/20 02:08:19;;;;;;;4.47;3.78;;;;;;;5.67;46.63;101951.22;5051227;28;20036;-62
2023/04/20 02:10:44;;;;;;;7.88;3.88;;;;;;;5.68;46.37;101948.50;5051732;28;20029;-63
2023/04/20 02:13:10;;;;;;;8.65;3.90;;;;;;;5.62;47.66;101940.97;5049238;28;20040;-62
2023/04/20 02:15:36;;;;;;;8.32;4.10;;;;;;;5.61;46.86;101936.66;5051276;28;20033;-62
2023/04/20 02:18:02;;;;;;;10.98;4.30;;;;;;;5.50;48.80;101935.59;5051690;28;20032;-62
2023/04/20 02:20:27;;;;;;;11.07;4.10;;;;;;;5.42;48.68;101927.34;5048484;28;20047;-62
2023/04/20 02:22:53;;;;;;;9.30;3.90;;;;;;;5.41;47.82;101932.72;5051197;28;20393;-62
2023/04/20 02:25:19;;;;;;;7.32;4.00;;;;;;;5.35;48.79;101936.59;5050241;28;20025;-63
2023/04/20 02:27:44;;;;;;;9.13;4.00;;;;;;;5.31;48.98;101935.09;5050870;28;20029;-62
2023/04/20 02:30:10;;;;;;;7.10;4.20;;;;;;;5.24;49.29;101921.53;5042752;28;20033;-62
2023/04/20 02:32:36;;;;;;;6.22;3.78;;;;;;;5.20;49.22;101927.91;5052470;28;20157;-62
2023/04/20 02:35:03;;;;;;;10.07;4.50;;;;;;;5.16;50.12;101922.00;5049645;28;20079;-63
2023/04/20 02:37:28;;;;;;;10.95;4.07;;;;;;;5.20;49.79;101917.41;5049219;28;20426;-62
2023/04/20 02:39:54;;;;;;;5.85;4.00;;;;;;;5.21;49.26;101921.72;5048336;28;20040;-62
2023/04/20 02:42:19;;;;;;;9.93;4.25;;;;;;;5.24;49.33;101918.91;5051431;28;20358;-63
2023/04/20 02:44:44;;;;;;;7.85;4.28;;;;;;;5.18;50.17;101914.84;5048316;28;20033;-63
2023/04/20 02:47:09;;;;;;;10.65;4.40;;;;;;;5.12;50.91;101910.00;5041157;28;20041;-62
2023/04/20 02:49:35;;;;;;;7.75;4.07;;;;;;;5.07;51.82;101906.81;5044465;28;20540;-62
2023/04/20 02:52:01;;;;;;;8.73;4.10;;;;;;;5.10;51.49;101906.63;5050050;28;20032;-62
2023/04/20 02:54:26;;;;;;;6.38;4.13;;;;;;;5.15;52.32;101909.81;5045402;28;20032;-63
2023/04/20 02:56:51;;;;;;;12.75;4.68;;;;;;;5.09;52.40;101899.69;5048802;28;20108;-62
2023/04/20 02:59:16;;;;;;;8.65;4.40;;;;;;;5.08;53.29;101900.63;5046833;28;20457;-62
2023/04/20 03:01:42;;;;;;;7.00;4.38;;;;;;;5.03;52.98;101900.91;5044177;28;20032;-62
2023/04/20 03:04:07;;;;;;;9.02;4.20;;;;;;;5.13;52.93;101898.53;5048400;28;20040;-63
2023/04/20 03:06:33;;;;;;;11.07;4.57;;;;;;;5.09;53.48;101895.25;5047404;28;20045;-62
2023/04/20 03:08:58;;;;;;;6.90;4.38;;;;;;;5.09;54.50;101895.25;5048712;28;20049;-62
2023/04/20 03:11:24;;;;;;;7.90;4.63;;;;;;;5.08;54.06;101887.50;5046213;28;20040;-62
2023/04/20 03:13:49;;;;;;;7.47;4.28;;;;;;;5.03;54.88;101884.31;5046128;28;20603;-62
2023/04/20 03:16:15;;;;;;;7.68;4.25;;;;;;;5.06;55.50;101884.97;5046527;28;20029;-62
2023/04/20 03:18:41;;;;;;;9.15;4.47;;;;;;;4.97;56.13;101883.75;5049096;28;20068;-62
2023/04/20 03:21:06;;;;;;;9.15;4.55;;;;;;;4.96;55.78;101874.19;5049706;28;20049;-62
2023/04/20 03:23:31;;;;;;;7.13;4.47;;;;;;;4.98;56.09;101874.06;5050171;28;20040;-62
2023/04/20 03:25:57;;;;;;;8.98;4.60;;;;;;;4.91;57.37;101871.00;5048019;28;20121;-62
2023/04/20 03:28:22;;;;;;;7.03;4.50;;;;;;;4.92;57.67;101872.69;5046558;28;20032;-62
2023/04/20 03:30:48;;;;;;;8.73;4.90;;;;;;;4.90;57.75;101868.47;5051256;28;20380;-62
2023/04/20 03:33:13;;;;;;;10.43;4.78;;;;;;;4.94;58.17;101875.22;5049386;28;20044;-63
2023/04/20 03:35:38;;;;;;;10.00;4.80;;;;;;;4.98;57.83;101869.66;5046963;28;20033;-62
2023/04/20 03:38:04;;;;;;;9.65;5.63;;;;;;;4.94;59.20;101876.06;5050655;28;20029;-62
2023/04/20 03:40:29;;;;;;;8.20;4.80;;;;;;;4.95;59.18;101866.41;5050424;28;20037;-62
2023/04/20 03:42:54;;;;;;;8.18;4.70;;;;;;;4.94;60.03;101862.91;5049271;28;20079;-62
2023/04/20 03:45:20;;;;;;;8.90;4.93;;;;;;;4.92;60.27;101853.44;5048237;28;20447;-62
2023/04/20 03:47:45;;;;;;;6.75;4.97;;;;;;;5.03;60.36;101842.25;5048239;28;20170;-63
2023/04/20 03:50:10;;;;;;;10.82;4.88;;;;;;;5.07;60.13;101843.72;5047633;28;20040;-62
2023/04/20 03:52:36;;;;;;;9.10;4.78;;;;;;;5.09;61.00;101852.38;5051082;28;20040;-62
2023/04/20 03:55:01;;;;;;;11.70;4.72;;;;;;;5.13;60.89;101853.84;5049522;28;20029;-62
2023/04/20 03:57:26;;;;;;;8.35;4.80;;;;;;;5.20;61.06;101843.75;5042405;28;20049;-62
2023/04/20 03:59:52;;;;;;;9.15;5.05;;;;;;;5.20;60.31;101836.72;5050759;28;20040;-62
2023/04/20 04:02:17;;;;;;;9.00;4.75;;;;;;;5.25;61.67;101845.13;5045705;28;20112;-62
2023/04/20 04:04:44;;;;;;;8.95;5.07;;;;;;;5.25;63.25;101839.88;5040681;28;20500;-62
2023/04/20 04:07:09;;;;;;;10.10;4.80;;;;;;;5.30;61.33;101844.00;5046979;28;20100;-67
2023/04/20 04:09:35;;;;;;;8.80;4.95;;;;;;;5.30;61.67;101838.72;5047989;28;20115;-62
2023/04/20 04:12:00;;;;;;;7.20;4.80;;;;;;;5.41;62.48;101836.22;5047733;28;20033;-62
2023/04/20 04:14:25;;;;;;;7.18;5.30;;;;;;;5.36;62.54;101827.81;5048515;28;20086;-62
2023/04/20 04:16:51;;;;;;;12.15;5.32;;;;;;;5.39;62.03;101830.25;5046149;28;20017;-62
2023/04/20 04:19:16;;;;;;;9.63;4.93;;;;;;;5.39;62.37;101835.50;5046521;28;20063;-62
2023/04/20 04:21:42;;;;;;;8.05;5.00;;;;;;;5.42;62.84;101827.38;5050042;28;20033;-63
2023/04/20 04:24:07;;;;;;;9.38;5.40;;;;;;;5.42;62.55;101818.66;5048513;28;20030;-63
2023/04/20 04:26:32;;;;;;;9.32;5.10;;;;;;;5.44;62.16;101819.41;5051930;28;20443;-63
2023/04/20 04:28:58;;;;;;;7.97;5.10;;;;;;;5.47;63.18;101820.03;5053793;28;20029;-63
2023/04/20 04:31:24;;;;;;;6.72;4.88;;;;;;;5.51;63.77;101808.38;5055274;28;20024;-62
2023/04/20 04:33:50;;;;;;;9.95;5.00;;;;;;;5.59;62.90;101796.47;5055464;28;20037;-62
2023/04/20 04:36:16;;;;;;;11.38;5.80;;;;;;;5.60;63.36;101795.53;5055003;28;20029;-63
2023/04/20 04:38:45;;;;;;;7.93;5.00;;;;;;;5.62;63.19;101791.84;5044921;28;20036;-63
2023/04/20 04:41:11;;;;;;;9.13;4.90;;;;;;;5.68;63.27;101793.22;5045085;28;20396;-63
2023/04/20 04:43:37;;;;;;;10.65;5.30;;;;;;;5.70;64.07;101791.31;5043287;28;20472;-63
2023/04/20 04:46:08;;;;;;;11.13;5.45;;;;;;;5.73;63.26;101785.81;5045367;28;20033;-63
2023/04/20 04:48:34;;;;;;;10.05;5.57;;;;;;;5.76;64.29;101776.88;5046496;28;20528;-62
2023/04/20 04:51:00;;;;;;;8.82;4.85;;;;;;;5.79;64.17;101782.75;5048994;28;20037;-62
2023/04/20 04:53:25;;;;;;;11.00;6.10;;;;;;;5.85;64.73;101772.75;5048719;28;20041;-63
2023/04/20 04:55:50;;;;;;;9.18;5.13;;;;;;;5.89;64.54;101784.78;5051274;28;20033;-63
2023/04/20 04:58:16;;;;;;;10.60;5.28;;;;;;;5.90;63.65;101778.56;5045450;28;20033;-63
2023/04/20 05:00:41;;;;;;;8.73;5.18;;;;;;;5.96;64.18;101772.84;5048942;28;20028;-63
2023/04/20 05:03:06;;;;;;;13.05;5.45;;;;;;;5.97;64.00;101764.00;5047016;28;20024;-63
2023/04/20 05:05:32;;;;;;;8.95;4.95;;;;;;;6.03;64.59;101768.88;5041674;28;20029;-63
2023/04/20 05:07:57;;;;;;;10.73;5.63;;;;;;;6.05;64.87;101771.41;5048496;28;20063;-63
2023/04/20 05:10:22;;;;;;;10.27;5.50;;;;;;;6.07;64.85;101776.56;5046292;28;20056;-63
2023/04/20 05:12:48;;;;;;;9.80;5.13;;;;;;;6.13;64.33;101773.50;5043185;28;20018;-62
2023/04/20 05:15:13;;;;;;;13.35;5.45;;;;;;;6.17;64.97;101773.16;5047920;28;20032;-63
2023/04/20 05:17:38;;;;;;;10.80;5.20;;;;;;;6.36;62.65;101773.66;5046971;28;20104;-62
2023/04/20 05:20:05;;;;;;;12.18;5.72;;;;;;;6.29;65.05;101774.09;5049329;28;20056;-63
2023/04/20 05:22:31;;;;;;;7.78;5.47;;;;;;;6.31;65.01;101769.53;5057209;28;20128;-63
2023/04/20 05:24:57;;;;;;;10.68;5.10;;;;;;;6.45;64.01;101778.22;5048872;28;20024;-62
2023/04/20 05:27:22;;;;;;;13.30;5.70;;;;;;;6.40;65.22;101777.72;5051785;28;20460;-62
2023/04/20 05:29:48;;;;;;;9.60;5.57;;;;;;;6.38;66.29;101767.31;5052871;28;20100;-63
2023/04/20 05:32:13;;;;;;;10.10;5.57;;;;;;;6.44;64.38;101766.00;5052404;28;20025;-62
2023/04/20 05:34:38;;;;;;;12.73;5.80;;;;;;;6.42;65.79;101773.19;5052806;28;20579;-63
2023/04/20 05:37:04;;;;;;;10.45;5.95;;;;;;;6.40;65.81;101769.81;5052664;28;20025;-63
2023/04/20 05:39:29;;;;;;;10.80;5.55;;;;;;;6.41;64.63;101771.53;5055466;28;20033;-63
2023/04/20 05:41:55;;;;;;;8.55;5.10;;;;;;;6.42;65.12;101778.47;5053493;28;20409;-62
2023/04/20 05:44:20;;;;;;;9.80;5.82;;;;;;;6.46;65.11;101774.63;5053955;28;20078;-63
2023/04/20 05:46:45;;;;;;;12.00;5.75;;;;;;;6.46;65.10;101774.63;5044887;28;20041;-63
2023/04/20 05:49:11;;;;;;;10.65;6.00;;;;;;;6.47;65.54;101763.19;5051897;28;20154;-63
2023/04/20 05:51:36;;;;;;;8.40;5.53;;;;;;;6.53;65.55;101757.44;5053889;28;20087;-63
2023/04/20 05:54:02;;;;;;;11.00;5.72;;;;;;;6.54;65.70;101764.41;5040460;28;20425;-63
2023/04/20 05:56:27;;;;;;;12.43;5.53;;;;;;;6.55;64.69;101763.44;5053561;28;20029;-62
2023/04/20 05:58:54;;;;;;;7.88;5.47;;;;;;;6.57;65.68;101756.25;5053413;28;20036;-62
2023/04/20 06:01:20;;;;;;;8.77;5.60;;;;;;;6.58;64.80;101757.94;5052864;28;20024;-63
2023/04/20 06:03:46;;;;;;;12.10;5.70;;;;;;;6.64;65.27;101766.34;5047481;28;20033;-62
2023/04/20 06:06:11;;;;;;;9.35;5.82;;;;;;;6.66;65.14;101760.00;5047396;28;20087;-63
2023/04/20 06:08:36;;;;;;;10.52;5.63;;;;;;;6.65;65.57;101763.59;5052323;28;20520;-63
2023/04/20 06:11:02;;;;;;;11.50;6.18;;;;;;;6.70;64.73;101755.34;5051161;28;20037;-62
2023/04/20 06:13:27;;;;;;;11.05;5.97;;;;;;;6.76;65.33;101757.53;5052324;28;20029;-62
2023/04/20 06:15:52;;;;;;;12.18;6.30;;;;;;;6.71;65.18;101751.78;5053542;28;20082;-63
2023/04/20 06:18:18;;;;;;;11.65;6.13;;;;;;;6.82;64.49;101753.63;5052421;28;20032;-62
2023/04/20 06:20:43;;;;;;;11.30;5.72;;;;;;;6.83;64.19;101755.28;5052267;28;20388;-62
2023/04/20 06:23:09;;;;;;;10.43;6.10;;;;;;;6.85;65.73;101748.09;5052103;28;20024;-62
2023/04/20 06:25:37;;;;;;;9.63;5.57;;;;;;;6.96;64.75;101755.22;5051300;28;20032;-62
2023/04/20 06:28:03;;;;;;;9.95;5.80;;;;;;;6.91;65.04;101760.00;5052379;28;20067;-61
2023/04/20 06:30:29;;;;;;;11.40;6.13;;;;;;;6.94;65.19;101747.44;5052441;28;20427;-62
2023/04/20 06:32:55;;;;;;;11.77;6.10;;;;;;;6.97;65.90;101752.44;5046387;28;20049;-61
2023/04/20 06:35:21;;;;;;;14.68;6.00;;;;;;;6.97;65.34;101743.72;5045202;28;20060;-62
2023/04/20 06:37:46;;;;;;;12.82;6.28;;;;;;;7.00;66.95;101749.59;5048873;28;20037;-63
2023/04/20 06:40:12;;;;;;;9.82;6.10;;;;;;;7.09;65.00;101737.53;5044823;28;20048;-62
2023/04/20 06:42:37;;;;;;;10.82;5.90;;;;;;;7.11;63.81;101742.69;5050962;28;20033;-62
2023/04/20 06:45:04;;;;;;;12.43;6.03;;;;;;;7.06;64.25;101732.47;5039547;28;20064;-63
2023/04/20 06:47:32;;;;;;;12.65;6.20;;;;;;;7.06;64.07;101729.81;5052189;28;20029;-62
2023/04/20 06:50:03;;;;;;;12.82;6.05;;;;;;;7.04;64.92;101729.09;5049447;28;20033;-62
2023/04/20 06:52:30;;;;;;;15.25;6.60;;;;;;;7.06;65.02;101737.72;5052123;28;20029;-62
2023/04/20 06:54:57;;;;;;;12.63;6.30;;;;;;;7.10;65.19;101738.34;5039808;28;20037;-61
2023/04/20 06:57:22;;;;;;;10.70;6.50;;;;;;;7.10;65.37;101736.56;5046807;28;20045;-62
2023/04/20 06:59:47;;;;;;;12.15;6.40;;;;;;;7.12;65.28;101734.63;5043887;28;20044;-63
2023/04/20 07:02:13;;;;;;;12.68;6.80;;;;;;;7.19;64.79;101723.63;5042972;28;20082;-63
2023/04/20 07:04:39;;;;;;;12.85;6.40;;;;;;;7.19;64.21;101728.88;5044535;28;20032;-62
2023/04/20 07:07:04;;;;;;;9.38;6.47;;;;;;;7.15;65.10;101728.28;5044220;28;20430;-63
2023/04/20 07:09:29;;;;;;;13.25;6.80;;;;;;;7.21;64.10;101727.00;5043146;28;20021;-62
2023/04/20 07:11:55;;;;;;;12.02;6.50;;;;;;;7.18;64.34;101728.06;5042624;28;20036;-63
2023/04/20 07:14:20;;;;;;;10.20;6.15;;;;;;;7.16;64.33;101729.13;5049273;28;20040;-63
2023/04/20 07:16:46;;;;;;;11.75;6.47;;;;;;;7.18;64.67;101728.06;5051792;28;20036;-62
2023/04/20 07:19:11;;;;;;;9.95;6.22;;;;;;;7.21;64.78;101721.72;5051785;28;20036;-63
2023/04/20 07:21:36;;;;;;;10.95;6.32;;;;;;;7.17;64.98;101729.03;5049109;28;20025;-63
2023/04/20 07:24:02;;;;;;;10.93;6.10;;;;;;;7.19;65.36;101736.81;5052276;28;20123;-63
2023/04/20 07:26:27;;;;;;;12.82;5.93;;;;;;;7.16;65.13;101734.41;5051778;28;20465;-62
2023/04/20 07:28:52;;;;;;;10.15;6.30;;;;;;;7.17;65.26;101730.81;5051242;28;20159;-63
2023/04/20 07:31:18;;;;;;;12.68;5.80;;;;;;;7.19;65.37;101735.03;5050501;28;20509;-62
2023/04/20 07:33:43;;;;;;;11.98;5.78;;;;;;;7.20;64.62;101735.88;5050880;28;20029;-62
2023/04/20 07:36:09;;;;;;;11.77;6.07;;;;;;;7.13;65.33;101735.50;5049526;28;20052;-63
2023/04/20 07:38:35;;;;;;;10.27;5.78;;;;;;;7.13;65.81;101736.34;5049599;28;20032;-63
2023/04/20 07:41:00;;;;;;;7.53;5.57;;;;;;;7.23;64.62;101730.34;5051880;28;20112;-62
2023/04/20 07:43:26;;;;;;;14.00;5.80;;;;;;;7.17;65.35;101729.03;5049790;28;20068;-62
2023/04/20 07:45:51;;;;;;;11.35;6.10;;;;;;;7.18;64.90;101727.22;5052143;28;20090;-63
2023/04/20 07:48:16;;;;;;;11.18;5.85;;;;;;;7.22;65.17;101728.66;5048427;28;20068;-63
2023/04/20 07:50:42;;;;;;;8.82;5.80;;;;;;;7.18;65.88;101732.50;5049471;28;20025;-63
2023/04/20 07:53:07;;;;;;;12.60;5.88;;;;;;;7.31;65.48;101735.03;5053792;28;20457;-63
2023/04/20 07:55:32;;;;;;;8.30;5.50;;;;;;;7.27;66.22;101729.97;5056104;28;20032;-63
2023/04/20 07:57:57;;;;;;;11.38;5.60;;;;;;;7.27;65.34;101718.59;5053125;28;20397;-63
2023/04/20 08:00:24;;;;;;;11.13;5.80;;;;;;;7.46;64.93;101725.09;5053478;28;20031;-62
2023/04/20 08:02:49;;;;;;;10.05;5.60;;;;;;;7.45;65.46;101733.97;5049951;28;20025;-62
2023/04/20 08:05:14;;;;;;;8.98;5.38;;;;;;;7.55;65.37;101724.38;5052970;28;20029;-63
2023/04/20 08:07:39;;;;;;;11.57;5.85;;;;;;;7.64;64.50;101726.31;5052904;28;20033;-64
2023/04/20 08:10:06;;;;;;;9.73;5.90;;;;;;;7.67;64.99;101723.44;5053755;28;20082;-63
2023/04/20 08:12:32;;;;;;;11.20;5.40;;;;;;;7.70;65.20;101721.50;5052091;28;20465;-64
2023/04/20 08:15:00;;;;;;;11.05;6.22;;;;;;;7.73;65.36;101726.53;5055324;28;20033;-63
2023/04/20 08:17:26;;;;;;;9.23;5.75;;;;;;;7.80;64.44;101723.28;5055947;28;20059;-63
2023/04/20 08:19:51;;;;;;;9.85;5.57;;;;;;;7.78;64.55;101721.72;5055217;28;20061;-63
2023/04/20 08:22:17;;;;;;;11.05;5.57;;;;;;;7.83;64.73;101716.94;5055046;28;20864;-63
2023/04/20 08:24:42;;;;;;;9.38;5.50;;;;;;;7.84;64.60;101708.03;5053913;28;20033;-63
2023/04/20 08:27:08;;;;;;;8.15;5.47;;;;;;;7.97;64.52;101712.34;5054928;28;20530;-63
2023/04/20 08:29:33;;;;;;;10.95;5.65;;;;;;;7.88;66.13;101706.00;5051833;28;20021;-63
2023/04/20 08:31:58;;;;;;;9.60;5.72;;;;;;;7.91;64.84;101703.94;5054947;28;20063;-63
2023/04/20 08:34:23;;;;;;;9.82;5.55;;;;;;;8.00;65.17;101701.53;5053280;28;20040;-63
2023/04/20 08:36:49;;;;;;;10.38;5.68;;;;;;;8.09;64.81;101700.78;5052857;28;20056;-62
2023/04/20 08:39:20;;;;;;;10.00;5.20;;;;;;;8.14;64.10;101689.88;5053832;28;20029;-62
2023/04/20 08:41:46;;;;;;;8.43;5.60;;;;;;;8.37;64.38;101693.28;5043389;28;20025;-62
2023/04/20 08:44:12;;;;;;;7.93;5.30;;;;;;;8.53;65.13;101681.47;5055521;28;20159;-62
2023/04/20 08:46:42;;;;;;;7.75;4.70;;;;;;;8.58;62.88;101682.75;5045975;28;20107;-62
2023/04/20 08:49:11;;;;;;;7.45;5.10;;;;;;;8.55;64.25;101688.31;5053073;28;20055;-62
2023/04/20 08:51:38;;;;;;;9.40;5.20;;;;;;;8.53;63.76;101678.84;5049833;28;20037;-62
2023/04/20 08:54:06;;;;;;;12.63;5.10;;;;;;;8.56;63.50;101681.22;5054073;28;20040;-62
2023/04/20 08:56:37;;;;;;;8.52;5.28;;;;;;;8.49;63.60;101680.88;5049212;28;20032;-62
2023/04/20 08:59:04;;;;;;;8.68;5.18;;;;;;;8.43;64.70;101681.34;5049808;28;20099;-61
2023/04/20 09:01:30;;;;;;;10.15;5.72;;;;;;;8.47;64.03;101682.78;5052128;28;20033;-62
2023/04/20 09:03:55;;;;;;;9.70;5.55;;;;;;;8.45;64.54;101669.69;5052309;28;20064;-62
2023/04/20 09:06:21;;;;;;;8.20;4.90;;;;;;;8.43;63.72;101682.19;5052981;28;20068;-62
2023/04/20 09:08:47;;;;;;;9.02;4.95;;;;;;;8.33;65.10;101674.19;5053435;28;20033;-62
2023/04/20 09:11:26;;;;;;;6.88;5.05;;;;;;;8.39;66.15;101686.03;5044945;28;20503;-62
2023/04/20 09:14:05;;;;;;;8.20;5.00;;;;;;;8.40;63.27;101661.31;5049921;28;20159;-62
2023/04/20 09:16:34;;;;;;;9.15;4.80;;;;;;;8.50;63.06;101676.41;5053374;28;20115;-62
2023/04/20 09:18:59;;;;;;;8.00;4.80;;;;;;;8.43;64.23;101671.63;5053338;28;20096;-62
2023/04/20 09:21:30;;;;;;;7.60;5.00;;;;;;;8.50;62.37;101673.75;5052606;28;20119;-62
2023/04/20 09:23:56;;;;;;;6.43;4.57;;;;;;;8.61;63.17;101689.59;5054025;28;20017;-62
2023/04/20 09:26:21;;;;;;;8.10;4.90;;;;;;;8.53;63.36;101676.19;5053648;28;20502;-62
2023/04/20 09:28:47;;;;;;;5.88;4.68;;;;;;;8.49;63.58;101675.56;5052062;28;20039;-63
2023/04/20 09:31:20;;;;;;;7.00;4.80;;;;;;;8.51;64.47;101675.44;5049399;28;20106;-64
2023/04/20 09:33:55;;;;;;;6.80;4.70;;;;;;;8.70;63.53;101672.97;5051074;28;20464;-65
2023/04/20 09:36:21;;;;;;;6.53;4.63;;;;;;;8.78;61.55;101674.13;5050882;28;20514;-64
2023/04/20 09:38:46;;;;;;;8.55;4.97;;;;;;;8.79;62.52;101681.09;5052911;28;20078;-64
2023/04/20 09:41:15;;;;;;;8.77;4.75;;;;;;;8.73;61.85;101680.63;5044108;28;20075;-64
2023/04/20 09:43:41;;;;;;;6.47;5.07;;;;;;;8.61;63.01;101674.59;5054083;28;20061;-68
2023/04/20 09:46:06;;;;;;;8.90;5.15;;;;;;;8.58;62.98;101673.97;5050940;28;20060;-64
2023/04/20 09:48:34;;;;;;;8.32;4.93;;;;;;;8.47;63.55;101667.75;5044204;28;20045;-64
2023/04/20 09:51:01;;;;;;;9.75;5.30;;;;;;;8.43;62.93;101670.78;5051870;28;20033;-64
2023/04/20 09:53:27;;;;;;;6.38;4.97;;;;;;;8.38;63.46;101673.81;5047269;28;20446;-64
2023/04/20 09:55:52;;;;;;;6.72;5.03;;;;;;;8.39;63.43;101664.09;5048792;28;20108;-63
2023/04/20 09:58:19;;;;;;;7.90;5.10;;;;;;;8.43;63.57;101663.69;5048596;28;20024;-64
2023/04/20 10:00:44;;;;;;;8.52;5.20;;;;;;;8.46;63.83;101652.03;5046668;28;20029;-63
2023/04/20 10:03:11;;;;;;;8.25;5.30;;;;;;;8.53;63.60;101639.19;5046093;28;20370;-63
2023/04/20 10:05:38;;;;;;;9.27;5.05;;;;;;;8.60;63.95;101638.50;5047727;28;20056;-64
2023/04/20 10:08:04;;;;;;;8.98;5.07;;;;;;;8.68;62.36;101635.22;5050315;28;20459;-64
2023/04/20 10:10:29;;;;;;;6.78;5.03;;;;;;;8.88;62.68;101632.69;5048143;28;20033;-63
2023/04/20 10:13:00;;;;;;;9.80;5.28;;;;;;;8.99;62.37;101643.19;5047001;28;20032;-63
2023/04/20 10:15:39;;;;;;;8.20;4.97;;;;;;;9.04;61.86;101631.41;5047366;28;20032;-63
2023/04/20 10:18:23;;;;;;;7.53;5.22;;;;;;;9.13;61.24;101633.28;5044907;28;20033;-64
2023/04/20 10:20:50;;;;;;;7.70;5.13;;;;;;;8.98;61.17;101638.88;5048842;28;20043;-64
2023/04/20 10:23:17;;;;;;;7.55;5.40;;;;;;;8.91;61.62;101631.59;5050049;28;20029;-64
2023/04/20 10:25:53;;;;;;;9.38;5.10;;;;;;;8.92;63.18;101636.75;5052075;28;20052;-64
2023/04/20 10:28:18;;;;;;;10.70;5.45;;;;;;;8.90;64.99;101636.06;5050559;28;20479;-64
2023/04/20 10:30:52;;;;;;;7.43;5.13;;;;;;;8.91;63.27;101637.75;5051647;28;20040;-64
2023/04/20 10:33:17;;;;;;;9.75;5.63;;;;;;;8.96;64.28;101637.34;5045456;28;20039;-64
2023/04/20 10:35:45;;;;;;;8.00;5.22;;;;;;;8.93;63.59;101630.50;5051493;28;20640;-64
2023/04/20 10:38:10;;;;;;;8.90;5.38;;;;;;;8.83;61.75;101627.00;5046135;28;20563;-64
2023/04/20 10:40:36;;;;;;;9.60;5.30;;;;;;;8.72;62.51;101633.16;5049549;28;20055;-63
2023/04/20 10:43:01;;;;;;;7.82;5.22;;;;;;;8.73;63.54;101627.75;5047388;28;20083;-64
2023/04/20 10:45:37;;;;;;;7.47;5.32;;;;;;;8.83;64.54;101621.69;5051486;28;20435;-63
2023/04/20 10:48:07;;;;;;;7.70;5.40;;;;;;;8.96;63.70;101627.59;5050391;28;20024;-64
2023/04/20 10:50:33;;;;;;;12.13;5.68;;;;;;;9.15;63.81;101618.94;5050788;28;20111;-63
2023/04/20 10:52:58;;;;;;;7.63;5.70;;;;;;;9.55;62.52;101609.31;5048463;28;20394;-63
2023/04/20 10:55:24;;;;;;;7.13;5.40;;;;;;;9.62;61.38;101608.78;5050281;28;20037;-65
2023/04/20 10:57:50;;;;;;;9.52;5.30;;;;;;;9.75;60.68;101614.63;5047189;28;20021;-64
2023/04/20 11:00:21;;;;;;;8.40;5.25;;;;;;;9.80;60.07;101617.72;5044812;28;20465;-64
2023/04/20 11:02:47;;;;;;;8.27;5.30;;;;;;;9.80;58.86;101609.78;5043077;28;20392;-63
2023/04/20 11:05:12;;;;;;;8.93;5.38;;;;;;;9.73;59.82;101613.94;5044380;28;20029;-64
2023/04/20 11:07:49;;;;;;;9.13;5.28;;;;;;;9.68;59.48;101608.22;5045478;28;20147;-64
2023/04/20 11:10:15;;;;;;;8.70;5.93;;;;;;;9.60;61.39;101608.03;5046545;28;20489;-63
2023/04/20 11:12:40;;;;;;;9.43;5.93;;;;;;;9.49;59.76;101609.84;5043452;28;20040;-64
2023/04/20 11:15:08;;;;;;;9.82;5.80;;;;;;;9.23;61.26;101604.19;5045178;28;20393;-64
2023/04/20 11:17:35;;;;;;;8.20;5.80;;;;;;;9.21;61.34;101606.97;5046863;28;20053;-63
2023/04/20 11:20:09;;;;;;;9.48;5.90;;;;;;;9.33;61.14;101599.75;5044603;28;20033;-64
2023/04/20 11:22:35;;;;;;;10.35;5.85;;;;;;;9.36;62.46;101598.66;5042498;28;20053;-64
2023/04/20 11:25:05;;;;;;;10.55;5.97;;;;;;;9.52;61.10;101591.03;5040241;28;20083;-63
2023/04/20 11:27:30;;;;;;;8.35;5.90;;;;;;;9.48;61.62;101589.63;5042624;28;20703;-64